sensor_id;sensor_type;location;lat;lon;timestamp;temperature;humidity
5150;DHT22;2593;52.466;13.436;2023-02-24T00:01:44;7.20;99.90
5150;DHT22;2593;52.466;13.436;2023-02-24T00:04:13;7.20;99.90
5150;DHT22;2593;52.466;13.436;2023-02-24T00:06:40;7.20;99.90
5150;DHT22;2593;52.466;13.436;2023-02-24T00:11:42;7.20;99.90
5150;DHT22;2593;52.466;13.436;2023-02-24T00:14:11;7.20;99.90
5150;DHT22;2593;52.466;13.436;2023-02-24T00:16:37;7.20;99.90
5150;DHT22;2593;52.466;13.436;2023-02-24T00:19:04;7.20;99.90
5150;DHT22;2593;52.466;13.436;2023-02-24T00:21:32;7.20;99.90
5150;DHT22;2593;52.466;13.436;2023-02-24T00:23:58;7.20;99.90
5150;DHT22;2593;52.466;13.436;2023-02-24T00:26:24;7.20;99.90
5150;DHT22;2593;52.466;13.436;2023-02-24T00:28:51;7.20;99.90
5150;DHT22;2593;52.466;13.436;2023-02-24T00:31:18;7.20;99.90
5150;DHT22;2593;52.466;13.436;2023-02-24T00:33:45;7.10;99.90
5150;DHT22;2593;52.466;13.436;2023-02-24T00:36:17;7.10;99.90
5150;DHT22;2593;52.466;13.436;2023-02-24T00:38:55;7.20;99.90
5150;DHT22;2593;52.466;13.436;2023-02-24T00:41:29;7.10;99.90
5150;DHT22;2593;52.466;13.436;2023-02-24T00:44:00;7.10;99.90
5150;DHT22;2593;52.466;13.436;2023-02-24T00:46:43;7.10;99.90
5150;DHT22;2593;52.466;13.436;2023-02-24T00:49:14;7.10;99.90
5150;DHT22;2593;52.466;13.436;2023-02-24T00:51:42;7.10;99.90
5150;DHT22;2593;52.466;13.436;2023-02-24T00:54:09;7.10;99.90
5150;DHT22;2593;52.466;13.436;2023-02-24T00:56:40;7.10;99.90
5150;DHT22;2593;52.466;13.436;2023-02-24T00:59:06;7.10;95.70
5150;DHT22;2593;52.466;13.436;2023-02-24T01:01:32;7.10;99.90
5150;DHT22;2593;52.466;13.436;2023-02-24T01:04:00;7.10;1.00
5150;DHT22;2593;52.466;13.436;2023-02-24T01:06:32;7.00;1.00
5150;DHT22;2593;52.466;13.436;2023-02-24T01:08:59;7.00;15.60
5150;DHT22;2593;52.466;13.436;2023-02-24T01:11:33;6.90;1.00
5150;DHT22;2593;52.466;13.436;2023-02-24T01:14:21;6.80;1.00
5150;DHT22;2593;52.466;13.436;2023-02-24T01:16:47;6.70;1.00
5150;DHT22;2593;52.466;13.436;2023-02-24T01:19:20;6.60;99.90
5150;DHT22;2593;52.466;13.436;2023-02-24T01:21:47;6.50;1.00
5150;DHT22;2593;52.466;13.436;2023-02-24T01:24:22;6.50;1.00
5150;DHT22;2593;52.466;13.436;2023-02-24T01:26:48;6.40;99.90
5150;DHT22;2593;52.466;13.436;2023-02-24T01:29:14;6.50;1.00
5150;DHT22;2593;52.466;13.436;2023-02-24T01:31:40;6.40;99.90
5150;DHT22;2593;52.466;13.436;2023-02-24T01:34:09;6.40;99.90
5150;DHT22;2593;52.466;13.436;2023-02-24T01:36:37;6.40;99.90
5150;DHT22;2593;52.466;13.436;2023-02-24T01:39:03;6.30;99.90
5150;DHT22;2593;52.466;13.436;2023-02-24T01:41:37;6.40;99.90
5150;DHT22;2593;52.466;13.436;2023-02-24T01:46:43;6.30;99.90
5150;DHT22;2593;52.466;13.436;2023-02-24T01:49:13;6.30;99.90
5150;DHT22;2593;52.466;13.436;2023-02-24T01:54:16;6.20;1.00
5150;DHT22;2593;52.466;13.436;2023-02-24T01:56:45;6.20;1.00
5150;DHT22;2593;52.466;13.436;2023-02-24T01:59:12;6.10;1.00
5150;DHT22;2593;52.466;13.436;2023-02-24T02:01:41;6.00;1.00
5150;DHT22;2593;52.466;13.436;2023-02-24T02:04:43;5.90;1.00
5150;DHT22;2593;52.466;13.436;2023-02-24T02:07:12;5.80;99.90
5150;DHT22;2593;52.466;13.436;2023-02-24T02:09:39;5.70;99.90
5150;DHT22;2593;52.466;13.436;2023-02-24T02:12:09;5.80;99.90
5150;DHT22;2593;52.466;13.436;2023-02-24T02:14:36;5.60;99.90
5150;DHT22;2593;52.466;13.436;2023-02-24T02:17:25;5.60;99.90
5150;DHT22;2593;52.466;13.436;2023-02-24T02:31:22;5.30;99.90
5150;DHT22;2593;52.466;13.436;2023-02-24T02:34:25;5.40;99.90
5150;DHT22;2593;52.466;13.436;2023-02-24T02:37:01;5.40;99.90
5150;DHT22;2593;52.466;13.436;2023-02-24T02:40:00;5.30;99.90
5150;DHT22;2593;52.466;13.436;2023-02-24T02:48:25;5.20;99.90
5150;DHT22;2593;52.466;13.436;2023-02-24T02:50:53;5.10;99.90
5150;DHT22;2593;52.466;13.436;2023-02-24T02:53:32;5.00;99.90
5150;DHT22;2593;52.466;13.436;2023-02-24T02:56:16;5.00;99.90
5150;DHT22;2593;52.466;13.436;2023-02-24T02:58:54;5.00;99.90
5150;DHT22;2593;52.466;13.436;2023-02-24T03:01:26;5.00;99.90
5150;DHT22;2593;52.466;13.436;2023-02-24T03:03:55;5.00;99.90
5150;DHT22;2593;52.466;13.436;2023-02-24T03:06:28;5.00;99.90
5150;DHT22;2593;52.466;13.436;2023-02-24T03:09:11;5.00;99.90
5150;DHT22;2593;52.466;13.436;2023-02-24T03:11:45;5.00;92.10
5150;DHT22;2593;52.466;13.436;2023-02-24T03:14:19;4.90;82.00
5150;DHT22;2593;52.466;13.436;2023-02-24T03:16:47;4.80;61.20
5150;DHT22;2593;52.466;13.436;2023-02-24T03:19:23;4.90;67.20
5150;DHT22;2593;52.466;13.436;2023-02-24T03:22:03;4.90;61.40
5150;DHT22;2593;52.466;13.436;2023-02-24T03:24:31;4.80;74.00
5150;DHT22;2593;52.466;13.436;2023-02-24T03:27:30;4.80;77.50
5150;DHT22;2593;52.466;13.436;2023-02-24T03:30:10;4.70;91.10
5150;DHT22;2593;52.466;13.436;2023-02-24T03:32:50;4.70;88.30
5150;DHT22;2593;52.466;13.436;2023-02-24T03:35:26;4.60;96.20
5150;DHT22;2593;52.466;13.436;2023-02-24T03:37:54;4.60;93.90
5150;DHT22;2593;52.466;13.436;2023-02-24T03:40:22;4.60;99.90
5150;DHT22;2593;52.466;13.436;2023-02-24T03:42:58;4.60;99.90
5150;DHT22;2593;52.466;13.436;2023-02-24T03:45:33;4.60;99.90
5150;DHT22;2593;52.466;13.436;2023-02-24T03:48:01;4.50;99.90
5150;DHT22;2593;52.466;13.436;2023-02-24T03:50:28;4.50;99.90
5150;DHT22;2593;52.466;13.436;2023-02-24T03:53:03;4.50;99.90
5150;DHT22;2593;52.466;13.436;2023-02-24T03:56:07;4.40;99.90
5150;DHT22;2593;52.466;13.436;2023-02-24T04:05:01;4.50;99.90
5150;DHT22;2593;52.466;13.436;2023-02-24T04:10:16;4.50;99.90
5150;DHT22;2593;52.466;13.436;2023-02-24T04:12:59;4.50;99.90
5150;DHT22;2593;52.466;13.436;2023-02-24T04:15:41;4.50;99.90
5150;DHT22;2593;52.466;13.436;2023-02-24T04:18:17;4.50;99.90
5150;DHT22;2593;52.466;13.436;2023-02-24T04:20:45;4.50;99.90
5150;DHT22;2593;52.466;13.436;2023-02-24T04:23:19;4.40;99.90
5150;DHT22;2593;52.466;13.436;2023-02-24T04:25:50;4.50;99.90
5150;DHT22;2593;52.466;13.436;2023-02-24T04:28:16;4.50;99.90
5150;DHT22;2593;52.466;13.436;2023-02-24T04:30:46;4.50;99.90
5150;DHT22;2593;52.466;13.436;2023-02-24T04:33:13;4.50;99.90
5150;DHT22;2593;52.466;13.436;2023-02-24T04:35:39;4.50;99.90
5150;DHT22;2593;52.466;13.436;2023-02-24T04:38:05;4.50;99.90
5150;DHT22;2593;52.466;13.436;2023-02-24T04:40:31;4.40;99.90
5150;DHT22;2593;52.466;13.436;2023-02-24T04:42:57;4.40;99.90
5150;DHT22;2593;52.466;13.436;2023-02-24T04:45:28;4.40;99.90
5150;DHT22;2593;52.466;13.436;2023-02-24T04:47:56;4.40;99.90
5150;DHT22;2593;52.466;13.436;2023-02-24T04:50:29;4.40;99.90
5150;DHT22;2593;52.466;13.436;2023-02-24T04:52:57;4.40;99.90
5150;DHT22;2593;52.466;13.436;2023-02-24T04:55:26;4.30;99.90
5150;DHT22;2593;52.466;13.436;2023-02-24T04:57:55;4.40;99.90
5150;DHT22;2593;52.466;13.436;2023-02-24T05:00:23;4.40;99.90
5150;DHT22;2593;52.466;13.436;2023-02-24T05:02:53;4.40;99.90
5150;DHT22;2593;52.466;13.436;2023-02-24T05:05:19;4.40;99.90
5150;DHT22;2593;52.466;13.436;2023-02-24T05:08:03;4.40;99.90
5150;DHT22;2593;52.466;13.436;2023-02-24T05:10:38;4.30;99.90
5150;DHT22;2593;52.466;13.436;2023-02-24T05:13:06;4.40;99.90
5150;DHT22;2593;52.466;13.436;2023-02-24T05:15:33;4.30;99.90
5150;DHT22;2593;52.466;13.436;2023-02-24T05:18:05;4.30;99.90
5150;DHT22;2593;52.466;13.436;2023-02-24T05:20:37;4.30;99.90
5150;DHT22;2593;52.466;13.436;2023-02-24T05:23:32;4.40;99.90
5150;DHT22;2593;52.466;13.436;2023-02-24T05:25:59;4.30;99.90
5150;DHT22;2593;52.466;13.436;2023-02-24T05:28:25;4.30;99.90
5150;DHT22;2593;52.466;13.436;2023-02-24T05:31:09;4.30;99.90
5150;DHT22;2593;52.466;13.436;2023-02-24T05:33:36;4.40;99.90
5150;DHT22;2593;52.466;13.436;2023-02-24T05:36:04;4.30;95.90
5150;DHT22;2593;52.466;13.436;2023-02-24T05:38:31;4.30;97.40
5150;DHT22;2593;52.466;13.436;2023-02-24T05:41:10;4.40;99.90
5150;DHT22;2593;52.466;13.436;2023-02-24T05:43:44;4.30;99.50
5150;DHT22;2593;52.466;13.436;2023-02-24T05:46:15;4.30;99.90
5150;DHT22;2593;52.466;13.436;2023-02-24T05:48:41;4.30;96.20
5150;DHT22;2593;52.466;13.436;2023-02-24T05:51:09;4.40;99.90
5150;DHT22;2593;52.466;13.436;2023-02-24T05:53:37;4.30;99.90
5150;DHT22;2593;52.466;13.436;2023-02-24T05:56:09;4.30;99.90
5150;DHT22;2593;52.466;13.436;2023-02-24T05:58:35;4.30;99.90
5150;DHT22;2593;52.466;13.436;2023-02-24T06:01:13;4.30;99.90
5150;DHT22;2593;52.466;13.436;2023-02-24T06:03:46;4.30;99.90
5150;DHT22;2593;52.466;13.436;2023-02-24T06:06:15;4.30;99.90
5150;DHT22;2593;52.466;13.436;2023-02-24T06:08:41;4.30;99.90
5150;DHT22;2593;52.466;13.436;2023-02-24T06:11:17;4.30;99.90
5150;DHT22;2593;52.466;13.436;2023-02-24T06:13:44;4.40;99.90
5150;DHT22;2593;52.466;13.436;2023-02-24T06:16:16;4.40;99.90
5150;DHT22;2593;52.466;13.436;2023-02-24T06:18:45;4.30;99.90
5150;DHT22;2593;52.466;13.436;2023-02-24T06:21:11;4.30;99.90
5150;DHT22;2593;52.466;13.436;2023-02-24T06:23:40;4.40;99.90
5150;DHT22;2593;52.466;13.436;2023-02-24T06:26:06;4.30;99.90
5150;DHT22;2593;52.466;13.436;2023-02-24T06:28:40;4.40;99.90
5150;DHT22;2593;52.466;13.436;2023-02-24T06:31:08;4.40;99.70
5150;DHT22;2593;52.466;13.436;2023-02-24T06:33:36;4.50;92.20
5150;DHT22;2593;52.466;13.436;2023-02-24T06:36:02;4.50;72.20
5150;DHT22;2593;52.466;13.436;2023-02-24T06:38:30;4.50;72.80
5150;DHT22;2593;52.466;13.436;2023-02-24T06:40:57;4.50;75.80
5150;DHT22;2593;52.466;13.436;2023-02-24T06:43:23;4.50;80.00
5150;DHT22;2593;52.466;13.436;2023-02-24T06:45:48;4.50;75.20
5150;DHT22;2593;52.466;13.436;2023-02-24T06:48:14;4.50;64.90
5150;DHT22;2593;52.466;13.436;2023-02-24T06:50:40;4.60;69.20
5150;DHT22;2593;52.466;13.436;2023-02-24T06:53:06;4.60;41.30
5150;DHT22;2593;52.466;13.436;2023-02-24T06:55:42;4.70;34.80
5150;DHT22;2593;52.466;13.436;2023-02-24T06:58:17;4.70;24.90
5150;DHT22;2593;52.466;13.436;2023-02-24T07:03:14;4.70;7.90
5150;DHT22;2593;52.466;13.436;2023-02-24T07:05:42;4.70;10.40
5150;DHT22;2593;52.466;13.436;2023-02-24T07:08:08;4.70;10.80
5150;DHT22;2593;52.466;13.436;2023-02-24T07:10:36;4.70;7.10
5150;DHT22;2593;52.466;13.436;2023-02-24T07:13:03;4.70;5.60
5150;DHT22;2593;52.466;13.436;2023-02-24T07:15:29;4.70;1.00
5150;DHT22;2593;52.466;13.436;2023-02-24T07:17:56;4.80;1.00
5150;DHT22;2593;52.466;13.436;2023-02-24T07:20:22;4.80;1.00
5150;DHT22;2593;52.466;13.436;2023-02-24T07:22:50;4.80;1.00
5150;DHT22;2593;52.466;13.436;2023-02-24T07:25:16;4.80;1.00
5150;DHT22;2593;52.466;13.436;2023-02-24T07:27:58;4.70;1.00
5150;DHT22;2593;52.466;13.436;2023-02-24T07:30:27;4.70;1.00
5150;DHT22;2593;52.466;13.436;2023-02-24T07:32:54;4.70;1.00
5150;DHT22;2593;52.466;13.436;2023-02-24T07:35:20;4.70;1.00
5150;DHT22;2593;52.466;13.436;2023-02-24T07:37:47;4.70;1.00
5150;DHT22;2593;52.466;13.436;2023-02-24T07:40:13;4.80;1.00
5150;DHT22;2593;52.466;13.436;2023-02-24T07:42:43;4.70;1.00
5150;DHT22;2593;52.466;13.436;2023-02-24T07:45:12;4.70;1.00
5150;DHT22;2593;52.466;13.436;2023-02-24T07:47:38;4.70;1.00
5150;DHT22;2593;52.466;13.436;2023-02-24T07:50:06;4.70;1.00
5150;DHT22;2593;52.466;13.436;2023-02-24T07:52:38;4.70;1.00
5150;DHT22;2593;52.466;13.436;2023-02-24T07:55:04;4.70;1.00
5150;DHT22;2593;52.466;13.436;2023-02-24T07:57:29;4.80;1.00
5150;DHT22;2593;52.466;13.436;2023-02-24T07:59:58;4.80;1.00
5150;DHT22;2593;52.466;13.436;2023-02-24T08:02:25;4.80;1.00
5150;DHT22;2593;52.466;13.436;2023-02-24T08:04:51;4.90;1.00
5150;DHT22;2593;52.466;13.436;2023-02-24T08:07:18;5.00;1.00
5150;DHT22;2593;52.466;13.436;2023-02-24T08:09:49;4.90;1.00
5150;DHT22;2593;52.466;13.436;2023-02-24T08:12:33;4.90;1.00
5150;DHT22;2593;52.466;13.436;2023-02-24T08:14:59;5.10;1.00
5150;DHT22;2593;52.466;13.436;2023-02-24T08:17:33;5.10;1.00
5150;DHT22;2593;52.466;13.436;2023-02-24T08:20:00;5.10;1.00
5150;DHT22;2593;52.466;13.436;2023-02-24T08:22:42;5.10;1.00
5150;DHT22;2593;52.466;13.436;2023-02-24T08:25:18;5.10;1.00
5150;DHT22;2593;52.466;13.436;2023-02-24T08:27:52;5.20;1.00
5150;DHT22;2593;52.466;13.436;2023-02-24T08:30:23;5.10;1.00
5150;DHT22;2593;52.466;13.436;2023-02-24T08:32:50;4.90;1.00
5150;DHT22;2593;52.466;13.436;2023-02-24T08:35:27;4.90;1.00
5150;DHT22;2593;52.466;13.436;2023-02-24T08:38:08;4.90;1.00
5150;DHT22;2593;52.466;13.436;2023-02-24T08:40:41;5.00;1.00
5150;DHT22;2593;52.466;13.436;2023-02-24T08:45:59;5.00;1.00
5150;DHT22;2593;52.466;13.436;2023-02-24T08:48:28;5.00;1.00
5150;DHT22;2593;52.466;13.436;2023-02-24T08:51:21;5.10;1.00
5150;DHT22;2593;52.466;13.436;2023-02-24T08:53:49;5.20;1.00
5150;DHT22;2593;52.466;13.436;2023-02-24T08:56:19;5.30;1.00
5150;DHT22;2593;52.466;13.436;2023-02-24T08:58:55;5.50;1.00
5150;DHT22;2593;52.466;13.436;2023-02-24T09:01:24;5.60;1.00
5150;DHT22;2593;52.466;13.436;2023-02-24T09:03:58;5.70;1.00
5150;DHT22;2593;52.466;13.436;2023-02-24T09:06:47;5.70;1.00
5150;DHT22;2593;52.466;13.436;2023-02-24T09:09:16;5.70;1.00
5150;DHT22;2593;52.466;13.436;2023-02-24T09:11:55;5.80;1.00
5150;DHT22;2593;52.466;13.436;2023-02-24T09:14:26;5.60;1.00
5150;DHT22;2593;52.466;13.436;2023-02-24T09:16:52;5.80;1.00
5150;DHT22;2593;52.466;13.436;2023-02-24T09:19:40;5.90;1.00
5150;DHT22;2593;52.466;13.436;2023-02-24T09:25:05;5.90;1.00
5150;DHT22;2593;52.466;13.436;2023-02-24T09:28:08;5.80;1.00
5150;DHT22;2593;52.466;13.436;2023-02-24T09:30:40;5.80;1.00
5150;DHT22;2593;52.466;13.436;2023-02-24T09:44:42;5.90;1.00
5150;DHT22;2593;52.466;13.436;2023-02-24T09:49:53;5.50;1.00
5150;DHT22;2593;52.466;13.436;2023-02-24T09:52:28;5.40;1.00
5150;DHT22;2593;52.466;13.436;2023-02-24T09:55:18;5.40;1.00
5150;DHT22;2593;52.466;13.436;2023-02-24T09:58:32;5.50;1.00
5150;DHT22;2593;52.466;13.436;2023-02-24T10:01:31;5.50;1.00
5150;DHT22;2593;52.466;13.436;2023-02-24T10:06:39;5.80;1.00
5150;DHT22;2593;52.466;13.436;2023-02-24T10:09:23;5.80;1.00
5150;DHT22;2593;52.466;13.436;2023-02-24T10:11:57;5.90;1.00
5150;DHT22;2593;52.466;13.436;2023-02-24T10:14:59;5.90;1.00
5150;DHT22;2593;52.466;13.436;2023-02-24T10:17:51;6.00;1.00
5150;DHT22;2593;52.466;13.436;2023-02-24T10:20:22;6.10;1.00
5150;DHT22;2593;52.466;13.436;2023-02-24T10:26:15;6.00;1.00
5150;DHT22;2593;52.466;13.436;2023-02-24T10:29:05;6.20;1.00
5150;DHT22;2593;52.466;13.436;2023-02-24T10:31:46;6.20;1.00
5150;DHT22;2593;52.466;13.436;2023-02-24T10:34:14;6.30;1.00
5150;DHT22;2593;52.466;13.436;2023-02-24T10:36:49;6.30;1.00
5150;DHT22;2593;52.466;13.436;2023-02-24T10:39:20;6.30;1.00
5150;DHT22;2593;52.466;13.436;2023-02-24T10:41:52;6.50;1.00
5150;DHT22;2593;52.466;13.436;2023-02-24T10:44:30;6.40;1.00
5150;DHT22;2593;52.466;13.436;2023-02-24T10:47:11;6.60;1.00
5150;DHT22;2593;52.466;13.436;2023-02-24T10:49:46;6.30;1.00
5150;DHT22;2593;52.466;13.436;2023-02-24T10:52:40;6.10;1.00
5150;DHT22;2593;52.466;13.436;2023-02-24T10:55:45;6.10;1.00
5150;DHT22;2593;52.466;13.436;2023-02-24T11:01:29;6.20;1.00
5150;DHT22;2593;52.466;13.436;2023-02-24T11:04:30;6.20;1.00
5150;DHT22;2593;52.466;13.436;2023-02-24T11:07:10;6.10;1.00
5150;DHT22;2593;52.466;13.436;2023-02-24T11:09:38;6.20;1.00
5150;DHT22;2593;52.466;13.436;2023-02-24T11:12:24;6.20;1.00
5150;DHT22;2593;52.466;13.436;2023-02-24T11:15:21;6.10;1.00
5150;DHT22;2593;52.466;13.436;2023-02-24T11:18:16;6.00;1.00
5150;DHT22;2593;52.466;13.436;2023-02-24T11:20:45;5.90;1.00
5150;DHT22;2593;52.466;13.436;2023-02-24T11:23:39;5.90;8.40
5150;DHT22;2593;52.466;13.436;2023-02-24T11:26:20;5.80;44.90
5150;DHT22;2593;52.466;13.436;2023-02-24T11:28:58;5.70;80.20
5150;DHT22;2593;52.466;13.436;2023-02-24T11:45:46;5.20;99.90
5150;DHT22;2593;52.466;13.436;2023-02-24T11:48:33;5.20;1.00
5150;DHT22;2593;52.466;13.436;2023-02-24T11:51:12;5.20;1.00
5150;DHT22;2593;52.466;13.436;2023-02-24T11:53:55;5.20;1.00
5150;DHT22;2593;52.466;13.436;2023-02-24T11:59:05;4.50;1.00
5150;DHT22;2593;52.466;13.436;2023-02-24T12:06:42;4.40;1.00
5150;DHT22;2593;52.466;13.436;2023-02-24T12:09:16;4.30;99.90
5150;DHT22;2593;52.466;13.436;2023-02-24T12:12:11;4.30;1.00
5150;DHT22;2593;52.466;13.436;2023-02-24T12:14:49;4.30;1.00
5150;DHT22;2593;52.466;13.436;2023-02-24T12:17:16;4.50;99.90
5150;DHT22;2593;52.466;13.436;2023-02-24T12:20:05;4.50;1.00
5150;DHT22;2593;52.466;13.436;2023-02-24T12:22:50;4.50;99.90
5150;DHT22;2593;52.466;13.436;2023-02-24T12:25:23;4.60;99.90
5150;DHT22;2593;52.466;13.436;2023-02-24T12:39:25;4.10;15.30
5150;DHT22;2593;52.466;13.436;2023-02-24T12:42:10;4.00;99.90
5150;DHT22;2593;52.466;13.436;2023-02-24T12:44:58;4.10;1.00
5150;DHT22;2593;52.466;13.436;2023-02-24T12:47:32;3.90;1.00
5150;DHT22;2593;52.466;13.436;2023-02-24T12:52:39;4.60;99.90
5150;DHT22;2593;52.466;13.436;2023-02-24T12:58:11;4.50;1.00
5150;DHT22;2593;52.466;13.436;2023-02-24T13:00:59;4.30;1.00
5150;DHT22;2593;52.466;13.436;2023-02-24T13:06:24;4.30;99.90
5150;DHT22;2593;52.466;13.436;2023-02-24T13:16:42;4.10;99.90
5150;DHT22;2593;52.466;13.436;2023-02-24T13:22:03;4.30;99.90
5150;DHT22;2593;52.466;13.436;2023-02-24T13:24:30;4.00;99.90
5150;DHT22;2593;52.466;13.436;2023-02-24T13:27:22;4.00;22.50
5150;DHT22;2593;52.466;13.436;2023-02-24T13:29:59;4.20;1.00
5150;DHT22;2593;52.466;13.436;2023-02-24T13:34:53;3.90;70.80
5150;DHT22;2593;52.466;13.436;2023-02-24T13:37:36;3.90;1.00
5150;DHT22;2593;52.466;13.436;2023-02-24T13:45:22;3.80;3.50
5150;DHT22;2593;52.466;13.436;2023-02-24T13:56:37;3.40;99.90
5150;DHT22;2593;52.466;13.436;2023-02-24T14:01:44;3.40;99.90
5150;DHT22;2593;52.466;13.436;2023-02-24T14:04:17;3.30;1.00
5150;DHT22;2593;52.466;13.436;2023-02-24T14:07:02;3.30;1.00
5150;DHT22;2593;52.466;13.436;2023-02-24T14:09:42;3.20;1.00
5150;DHT22;2593;52.466;13.436;2023-02-24T14:14:40;3.30;1.00
5150;DHT22;2593;52.466;13.436;2023-02-24T14:17:28;3.30;1.00
5150;DHT22;2593;52.466;13.436;2023-02-24T14:20:20;3.30;1.00
5150;DHT22;2593;52.466;13.436;2023-02-24T14:22:49;3.20;1.00
5150;DHT22;2593;52.466;13.436;2023-02-24T14:25:17;3.30;1.00
5150;DHT22;2593;52.466;13.436;2023-02-24T14:27:46;3.30;1.00
5150;DHT22;2593;52.466;13.436;2023-02-24T14:30:22;3.30;1.00
5150;DHT22;2593;52.466;13.436;2023-02-24T14:32:48;3.30;1.00
5150;DHT22;2593;52.466;13.436;2023-02-24T14:37:50;3.30;4.70
5150;DHT22;2593;52.466;13.436;2023-02-24T14:40:16;3.40;45.00
5150;DHT22;2593;52.466;13.436;2023-02-24T14:42:48;3.30;1.00
5150;DHT22;2593;52.466;13.436;2023-02-24T14:45:20;3.40;1.00
5150;DHT22;2593;52.466;13.436;2023-02-24T14:47:46;3.40;1.00
5150;DHT22;2593;52.466;13.436;2023-02-24T14:50:16;3.30;1.00
5150;DHT22;2593;52.466;13.436;2023-02-24T14:55:18;3.40;1.00
5150;DHT22;2593;52.466;13.436;2023-02-24T15:00:35;3.60;1.00
5150;DHT22;2593;52.466;13.436;2023-02-24T15:03:22;3.50;1.00
5150;DHT22;2593;52.466;13.436;2023-02-24T15:05:52;3.40;1.00
5150;DHT22;2593;52.466;13.436;2023-02-24T15:08:32;3.40;1.00
5150;DHT22;2593;52.466;13.436;2023-02-24T15:10:58;3.40;1.00
5150;DHT22;2593;52.466;13.436;2023-02-24T15:13:43;3.40;1.00
5150;DHT22;2593;52.466;13.436;2023-02-24T15:18:41;3.30;5.70
5150;DHT22;2593;52.466;13.436;2023-02-24T15:21:13;3.40;16.20
5150;DHT22;2593;52.466;13.436;2023-02-24T15:23:42;3.50;43.90
5150;DHT22;2593;52.466;13.436;2023-02-24T15:26:27;3.30;2.20
5150;DHT22;2593;52.466;13.436;2023-02-24T15:29:02;3.30;1.00
5150;DHT22;2593;52.466;13.436;2023-02-24T15:31:36;3.30;1.00
5150;DHT22;2593;52.466;13.436;2023-02-24T15:34:01;3.40;1.00
5150;DHT22;2593;52.466;13.436;2023-02-24T15:36:33;3.40;1.00
5150;DHT22;2593;52.466;13.436;2023-02-24T15:39:02;3.40;1.00
5150;DHT22;2593;52.466;13.436;2023-02-24T15:41:45;3.40;1.00
5150;DHT22;2593;52.466;13.436;2023-02-24T15:44:31;3.40;1.00
5150;DHT22;2593;52.466;13.436;2023-02-24T15:46:59;3.90;99.90
5150;DHT22;2593;52.466;13.436;2023-02-24T15:49:35;3.90;99.90
5150;DHT22;2593;52.466;13.436;2023-02-24T15:52:01;3.80;99.90
5150;DHT22;2593;52.466;13.436;2023-02-24T15:54:30;3.80;99.90
5150;DHT22;2593;52.466;13.436;2023-02-24T15:56:59;3.60;1.00
5150;DHT22;2593;52.466;13.436;2023-02-24T15:59:25;3.40;1.00
5150;DHT22;2593;52.466;13.436;2023-02-24T16:01:51;3.20;1.00
5150;DHT22;2593;52.466;13.436;2023-02-24T16:04:17;3.10;5.90
5150;DHT22;2593;52.466;13.436;2023-02-24T16:06:44;3.10;99.90
5150;DHT22;2593;52.466;13.436;2023-02-24T16:09:25;3.00;99.90
5150;DHT22;2593;52.466;13.436;2023-02-24T16:11:56;3.00;99.90
5150;DHT22;2593;52.466;13.436;2023-02-24T16:14:23;3.00;99.90
5150;DHT22;2593;52.466;13.436;2023-02-24T16:16:49;3.10;99.90
5150;DHT22;2593;52.466;13.436;2023-02-24T16:19:15;3.00;99.90
5150;DHT22;2593;52.466;13.436;2023-02-24T16:21:42;3.10;99.90
5150;DHT22;2593;52.466;13.436;2023-02-24T16:24:07;3.10;99.90
5150;DHT22;2593;52.466;13.436;2023-02-24T16:26:36;3.50;99.90
5150;DHT22;2593;52.466;13.436;2023-02-24T16:29:04;3.30;99.90
5150;DHT22;2593;52.466;13.436;2023-02-24T16:31:36;3.20;99.90
5150;DHT22;2593;52.466;13.436;2023-02-24T16:34:02;3.10;99.90
5150;DHT22;2593;52.466;13.436;2023-02-24T16:36:29;3.10;99.90
5150;DHT22;2593;52.466;13.436;2023-02-24T16:38:54;3.10;99.90
5150;DHT22;2593;52.466;13.436;2023-02-24T16:41:20;3.10;99.90
5150;DHT22;2593;52.466;13.436;2023-02-24T16:43:46;3.10;99.90
5150;DHT22;2593;52.466;13.436;2023-02-24T16:46:18;3.10;99.90
5150;DHT22;2593;52.466;13.436;2023-02-24T16:48:46;3.10;99.90
5150;DHT22;2593;52.466;13.436;2023-02-24T16:51:12;3.20;99.90
5150;DHT22;2593;52.466;13.436;2023-02-24T16:53:39;3.10;99.90
5150;DHT22;2593;52.466;13.436;2023-02-24T16:56:05;3.20;99.90
5150;DHT22;2593;52.466;13.436;2023-02-24T16:58:32;3.30;99.90
5150;DHT22;2593;52.466;13.436;2023-02-24T17:00:59;3.30;99.90
5150;DHT22;2593;52.466;13.436;2023-02-24T17:03:46;3.30;99.90
5150;DHT22;2593;52.466;13.436;2023-02-24T17:06:12;3.30;99.90
5150;DHT22;2593;52.466;13.436;2023-02-24T17:08:37;3.30;99.90
5150;DHT22;2593;52.466;13.436;2023-02-24T17:11:04;3.30;99.90
5150;DHT22;2593;52.466;13.436;2023-02-24T17:13:29;3.30;99.90
5150;DHT22;2593;52.466;13.436;2023-02-24T17:15:55;3.30;99.90
5150;DHT22;2593;52.466;13.436;2023-02-24T17:18:25;3.30;99.90
5150;DHT22;2593;52.466;13.436;2023-02-24T17:20:51;3.40;99.90
5150;DHT22;2593;52.466;13.436;2023-02-24T17:23:17;3.40;99.90
5150;DHT22;2593;52.466;13.436;2023-02-24T17:25:43;3.50;55.90
5150;DHT22;2593;52.466;13.436;2023-02-24T17:28:09;3.50;1.00
5150;DHT22;2593;52.466;13.436;2023-02-24T17:30:35;3.40;1.00
5150;DHT22;2593;52.466;13.436;2023-02-24T17:33:01;3.40;1.00
5150;DHT22;2593;52.466;13.436;2023-02-24T17:35:27;3.40;2.10
5150;DHT22;2593;52.466;13.436;2023-02-24T17:37:53;3.50;1.00
5150;DHT22;2593;52.466;13.436;2023-02-24T17:40:20;3.50;1.00
5150;DHT22;2593;52.466;13.436;2023-02-24T17:42:45;3.60;1.00
5150;DHT22;2593;52.466;13.436;2023-02-24T17:45:12;3.60;1.00
5150;DHT22;2593;52.466;13.436;2023-02-24T17:47:38;3.60;1.00
5150;DHT22;2593;52.466;13.436;2023-02-24T17:50:04;3.70;1.00
5150;DHT22;2593;52.466;13.436;2023-02-24T17:52:31;3.70;1.00
5150;DHT22;2593;52.466;13.436;2023-02-24T17:54:57;3.80;1.00
5150;DHT22;2593;52.466;13.436;2023-02-24T17:57:23;3.70;1.00
5150;DHT22;2593;52.466;13.436;2023-02-24T17:59:48;3.70;1.00
5150;DHT22;2593;52.466;13.436;2023-02-24T18:02:16;3.70;1.00
5150;DHT22;2593;52.466;13.436;2023-02-24T18:04:42;3.60;1.00
5150;DHT22;2593;52.466;13.436;2023-02-24T18:07:09;3.60;1.00
5150;DHT22;2593;52.466;13.436;2023-02-24T18:09:35;3.60;1.00
5150;DHT22;2593;52.466;13.436;2023-02-24T18:12:02;3.60;1.00
5150;DHT22;2593;52.466;13.436;2023-02-24T18:14:28;3.60;1.00
5150;DHT22;2593;52.466;13.436;2023-02-24T18:16:54;3.60;1.00
5150;DHT22;2593;52.466;13.436;2023-02-24T18:19:19;3.60;1.00
5150;DHT22;2593;52.466;13.436;2023-02-24T18:21:45;3.50;1.00
5150;DHT22;2593;52.466;13.436;2023-02-24T18:24:11;3.50;1.00
5150;DHT22;2593;52.466;13.436;2023-02-24T18:26:36;3.50;19.10
5150;DHT22;2593;52.466;13.436;2023-02-24T18:29:02;3.50;33.00
5150;DHT22;2593;52.466;13.436;2023-02-24T18:31:28;3.50;47.20
5150;DHT22;2593;52.466;13.436;2023-02-24T18:33:55;3.50;27.90
5150;DHT22;2593;52.466;13.436;2023-02-24T18:36:21;3.50;93.50
5150;DHT22;2593;52.466;13.436;2023-02-24T18:38:47;3.60;99.90
5150;DHT22;2593;52.466;13.436;2023-02-24T18:41:15;3.60;99.90
5150;DHT22;2593;52.466;13.436;2023-02-24T18:43:42;3.60;99.90
5150;DHT22;2593;52.466;13.436;2023-02-24T18:46:11;3.60;70.90
5150;DHT22;2593;52.466;13.436;2023-02-24T18:48:38;3.60;79.40
5150;DHT22;2593;52.466;13.436;2023-02-24T18:51:10;3.60;31.00
5150;DHT22;2593;52.466;13.436;2023-02-24T18:53:36;3.60;89.30
5150;DHT22;2593;52.466;13.436;2023-02-24T18:56:07;3.60;78.10
5150;DHT22;2593;52.466;13.436;2023-02-24T18:58:33;3.70;96.00
5150;DHT22;2593;52.466;13.436;2023-02-24T19:00:59;3.70;36.90
5150;DHT22;2593;52.466;13.436;2023-02-24T19:03:25;3.70;32.90
5150;DHT22;2593;52.466;13.436;2023-02-24T19:05:51;3.80;82.30
5150;DHT22;2593;52.466;13.436;2023-02-24T19:08:17;3.70;14.10
5150;DHT22;2593;52.466;13.436;2023-02-24T19:10:43;3.80;10.80
5150;DHT22;2593;52.466;13.436;2023-02-24T19:13:12;3.80;13.10